Time;durP1;ratioP1;P1;durP2;ratioP2;P2;SDS_P1;SDS_P2;PMS_P1;PMS_P2;Temp;Humidity;BMP_temperature;BMP_pressure;BME280_temperature;BME280_humidity;BME280_pressure;Samples;Min_cycle;Max_cycle;Signal;HPM_P1;HPM_P2
2024/01/29 00:02:05;;;;;;;6.28;4.13;;;4.30;99.90;;;;;;5096451;27;20039;-72
2024/01/29 00:04:31;;;;;;;8.75;4.28;;;4.30;99.90;;;;;;5095530;27;20043;-71
2024/01/29 00:06:56;;;;;;;5.93;4.32;;;4.20;99.90;;;;;;5115186;27;20036;-72
2024/01/29 00:09:23;;;;;;;6.00;3.97;;;4.20;99.90;;;;;;5099528;27;20050;-71
2024/01/29 00:11:49;;;;;;;5.57;4.20;;;4.20;99.90;;;;;;5097034;27;20047;-72
2024/01/29 00:14:14;;;;;;;9.15;4.25;;;4.10;99.90;;;;;;5115456;27;20123;-72
2024/01/29 00:16:40;;;;;;;8.23;4.78;;;4.10;99.90;;;;;;5100519;27;20525;-72
2024/01/29 00:19:06;;;;;;;8.88;4.93;;;4.00;99.90;;;;;;5098134;27;20043;-71
2024/01/29 00:21:31;;;;;;;6.53;4.07;;;4.00;99.90;;;;;;5097302;27;20047;-71
2024/01/29 00:24:00;;;;;;;7.60;4.35;;;4.00;99.90;;;;;;5117008;27;20121;-72
2024/01/29 00:26:26;;;;;;;7.93;4.55;;;4.00;99.90;;;;;;5093442;27;20049;-72
2024/01/29 00:28:52;;;;;;;5.95;4.03;;;4.00;99.90;;;;;;5117646;27;20106;-72
2024/01/29 00:31:18;;;;;;;7.30;4.20;;;3.90;99.90;;;;;;5114475;27;20034;-71
2024/01/29 00:33:46;;;;;;;9.90;4.53;;;4.00;99.90;;;;;;5097153;27;20149;-72
2024/01/29 00:36:11;;;;;;;8.77;4.30;;;3.90;99.90;;;;;;5118748;27;20091;-72
2024/01/29 00:38:37;;;;;;;7.07;4.40;;;3.90;99.90;;;;;;5113763;27;20044;-71
2024/01/29 00:41:03;;;;;;;5.60;3.95;;;3.90;99.90;;;;;;5098728;27;20031;-71
2024/01/29 00:43:28;;;;;;;5.47;3.88;;;3.90;99.90;;;;;;5113833;27;20043;-71
2024/01/29 00:45:54;;;;;;;6.43;4.32;;;3.90;99.90;;;;;;5118286;27;20049;-71
2024/01/29 00:48:22;;;;;;;6.15;4.28;;;3.90;99.90;;;;;;5113109;27;20121;-71
2024/01/29 00:50:48;;;;;;;8.00;4.40;;;3.80;99.90;;;;;;5096112;27;20031;-72
2024/01/29 00:53:15;;;;;;;5.18;4.20;;;3.80;99.90;;;;;;5100389;27;20043;-71
2024/01/29 00:55:43;;;;;;;7.63;4.43;;;3.70;99.90;;;;;;5116147;27;20039;-71
2024/01/29 00:58:10;;;;;;;5.18;4.18;;;3.70;99.90;;;;;;5096263;27;20046;-72
2024/01/29 01:00:35;;;;;;;7.30;4.40;;;3.70;99.90;;;;;;5096868;27;20043;-72
2024/01/29 01:03:01;;;;;;;7.05;4.30;;;3.70;99.90;;;;;;5114519;27;20332;-72
2024/01/29 01:05:27;;;;;;;7.18;4.25;;;3.70;99.90;;;;;;5116095;27;20035;-72
2024/01/29 01:07:52;;;;;;;6.07;4.15;;;3.70;99.90;;;;;;5116839;27;20035;-71
2024/01/29 01:10:18;;;;;;;7.32;4.45;;;3.70;99.90;;;;;;5098384;27;20131;-72
2024/01/29 01:12:43;;;;;;;6.03;4.32;;;3.70;99.90;;;;;;5115311;27;20099;-72
2024/01/29 01:15:09;;;;;;;5.72;4.28;;;3.70;99.90;;;;;;5117817;27;20046;-72
2024/01/29 01:17:35;;;;;;;4.78;3.83;;;3.70;99.90;;;;;;5096165;27;20078;-71
2024/01/29 01:20:00;;;;;;;6.55;4.22;;;3.70;99.90;;;;;;5115367;27;20504;-71
2024/01/29 01:22:26;;;;;;;6.85;4.35;;;3.70;99.90;;;;;;5116776;27;20061;-72
2024/01/29 01:24:51;;;;;;;7.55;4.30;;;3.60;99.90;;;;;;5095861;27;20063;-71
2024/01/29 01:27:17;;;;;;;5.88;4.32;;;3.60;99.90;;;;;;5116723;27;20051;-71
2024/01/29 01:29:44;;;;;;;6.35;4.57;;;3.60;99.90;;;;;;5116208;27;20067;-72
2024/01/29 01:32:10;;;;;;;5.97;4.15;;;3.70;99.90;;;;;;5114251;27;20043;-72
2024/01/29 01:34:35;;;;;;;7.88;4.28;;;3.70;99.90;;;;;;5096020;27;20668;-72
2024/01/29 01:37:01;;;;;;;5.82;3.78;;;3.60;99.90;;;;;;5094856;27;20047;-71
2024/01/29 01:39:26;;;;;;;8.13;4.28;;;3.70;99.90;;;;;;5114373;27;20066;-72
2024/01/29 01:41:52;;;;;;;6.22;4.40;;;3.70;99.90;;;;;;5094158;27;20047;-72
2024/01/29 01:44:18;;;;;;;6.65;4.30;;;3.60;99.90;;;;;;5117196;27;20062;-71
2024/01/29 01:46:43;;;;;;;4.88;4.10;;;3.60;99.90;;;;;;5112558;27;20070;-72
2024/01/29 01:49:10;;;;;;;6.82;4.22;;;3.60;99.90;;;;;;5096183;27;20039;-72
2024/01/29 01:51:36;;;;;;;9.07;4.30;;;3.50;99.90;;;;;;5116575;27;20047;-72
2024/01/29 01:54:03;;;;;;;6.85;4.50;;;3.50;99.90;;;;;;5115152;27;20039;-71
2024/01/29 01:56:29;;;;;;;6.13;4.43;;;3.50;99.90;;;;;;5116065;27;20050;-72
2024/01/29 01:58:59;;;;;;;7.20;4.43;;;3.50;99.90;;;;;;5094712;27;20083;-72
2024/01/29 02:01:26;;;;;;;9.82;5.03;;;3.40;99.90;;;;;;5097217;28;20054;-71
2024/01/29 02:03:51;;;;;;;6.22;4.20;;;3.50;99.90;;;;;;5095473;27;20477;-72
2024/01/29 02:06:17;;;;;;;5.47;4.53;;;3.50;99.90;;;;;;5114652;27;20080;-72
2024/01/29 02:08:43;;;;;;;5.55;4.30;;;3.50;99.90;;;;;;5114055;27;20035;-72
2024/01/29 02:11:08;;;;;;;7.30;4.18;;;3.50;99.90;;;;;;5095325;27;20043;-71
2024/01/29 02:13:34;;;;;;;6.43;4.38;;;3.50;99.90;;;;;;5116837;27;20039;-72
2024/01/29 02:16:02;;;;;;;5.90;4.13;;;3.60;99.90;;;;;;5112687;27;20047;-72
2024/01/29 02:18:28;;;;;;;6.78;4.13;;;3.50;99.90;;;;;;5100242;28;20067;-72
2024/01/29 02:20:54;;;;;;;6.55;4.63;;;3.50;99.90;;;;;;5115510;27;20632;-71
2024/01/29 02:23:20;;;;;;;7.70;4.22;;;3.50;99.90;;;;;;5112471;27;20043;-71
2024/01/29 02:25:46;;;;;;;5.25;4.53;;;3.50;99.90;;;;;;5116316;27;20043;-72
2024/01/29 02:28:11;;;;;;;6.10;4.50;;;3.40;99.90;;;;;;5094843;27;20035;-72
2024/01/29 02:30:37;;;;;;;5.13;4.10;;;3.40;99.90;;;;;;5096816;27;20125;-72
2024/01/29 02:33:03;;;;;;;6.55;4.72;;;3.40;99.90;;;;;;5095864;27;20050;-71
2024/01/29 02:35:28;;;;;;;5.80;4.55;;;3.40;99.90;;;;;;5114288;27;20054;-72
2024/01/29 02:37:54;;;;;;;8.68;5.03;;;3.30;99.90;;;;;;5097561;27;20977;-71
2024/01/29 02:40:20;;;;;;;7.15;4.30;;;3.30;99.90;;;;;;5113649;27;20100;-72
2024/01/29 02:42:45;;;;;;;5.88;4.38;;;3.30;99.90;;;;;;5096344;28;20039;-72
2024/01/29 02:45:11;;;;;;;7.28;4.47;;;3.30;99.90;;;;;;5115174;27;20229;-71
2024/01/29 02:47:36;;;;;;;7.55;4.80;;;3.30;99.90;;;;;;5097022;28;20442;-71
2024/01/29 02:50:02;;;;;;;7.97;5.15;;;3.30;99.90;;;;;;5080207;27;20633;-72
2024/01/29 02:52:28;;;;;;;6.32;4.38;;;3.40;99.90;;;;;;5094007;27;20095;-73
2024/01/29 02:54:54;;;;;;;7.10;4.70;;;3.30;99.90;;;;;;5098694;27;20055;-71
2024/01/29 02:57:23;;;;;;;7.90;4.70;;;3.20;99.90;;;;;;5095615;27;20047;-71
2024/01/29 02:59:50;;;;;;;8.18;4.82;;;3.20;99.90;;;;;;5117240;27;20541;-71
2024/01/29 03:02:15;;;;;;;7.10;4.70;;;3.20;99.90;;;;;;5112854;27;20100;-72
2024/01/29 03:04:41;;;;;;;5.82;4.57;;;3.10;99.90;;;;;;5096854;28;20051;-72
2024/01/29 03:07:06;;;;;;;8.10;4.78;;;3.10;99.90;;;;;;5094626;27;20490;-72
2024/01/29 03:09:32;;;;;;;9.52;5.18;;;3.10;99.90;;;;;;5113223;27;20027;-72
2024/01/29 03:11:58;;;;;;;7.63;4.63;;;3.10;99.90;;;;;;5096659;27;20035;-71
2024/01/29 03:14:23;;;;;;;6.15;4.55;;;3.10;99.90;;;;;;5099922;27;20379;-72
2024/01/29 03:16:52;;;;;;;8.07;4.40;;;3.10;99.90;;;;;;5117436;27;20062;-72
2024/01/29 03:19:17;;;;;;;9.73;4.65;;;3.00;99.90;;;;;;5116512;27;20094;-72
2024/01/29 03:21:43;;;;;;;6.90;4.68;;;3.00;99.90;;;;;;5100103;27;20047;-72
2024/01/29 03:24:09;;;;;;;7.32;4.70;;;3.00;99.90;;;;;;5118152;27;20077;-71
2024/01/29 03:26:34;;;;;;;8.77;4.90;;;3.00;99.90;;;;;;5099573;27;20486;-71
2024/01/29 03:29:00;;;;;;;8.18;4.78;;;3.10;99.90;;;;;;5099533;27;20489;-72
2024/01/29 03:31:25;;;;;;;7.00;4.68;;;3.00;99.90;;;;;;5116794;27;20039;-71
2024/01/29 03:33:51;;;;;;;7.45;4.97;;;3.10;99.90;;;;;;5101024;27;20031;-72
2024/01/29 03:36:17;;;;;;;6.88;4.97;;;3.10;99.90;;;;;;5096797;27;20046;-72
2024/01/29 03:38:42;;;;;;;8.00;5.30;;;3.00;99.90;;;;;;5117346;27;20050;-73
2024/01/29 03:41:08;;;;;;;7.03;4.88;;;3.00;99.90;;;;;;5116470;27;20417;-72
2024/01/29 03:43:34;;;;;;;7.78;5.10;;;3.00;99.90;;;;;;5099037;27;20084;-71
2024/01/29 03:45:59;;;;;;;9.45;5.50;;;3.00;99.90;;;;;;5119224;27;20067;-72
2024/01/29 03:48:26;;;;;;;6.75;5.03;;;3.00;99.90;;;;;;5097113;27;20047;-72
2024/01/29 03:50:52;;;;;;;7.78;5.00;;;3.00;99.90;;;;;;5119893;27;20039;-71
2024/01/29 03:53:17;;;;;;;7.40;5.40;;;3.00;99.90;;;;;;5083236;27;20172;-73
2024/01/29 03:55:43;;;;;;;7.90;5.50;;;3.00;99.90;;;;;;5100508;27;20047;-73
2024/01/29 03:58:09;;;;;;;12.40;5.38;;;3.00;99.90;;;;;;5116889;27;20043;-72
2024/01/29 04:00:34;;;;;;;10.40;5.40;;;3.00;99.90;;;;;;5097805;27;20069;-72
2024/01/29 04:03:03;;;;;;;8.05;5.72;;;2.90;99.90;;;;;;5117201;27;20107;-72
2024/01/29 04:05:29;;;;;;;6.82;5.38;;;2.90;99.90;;;;;;5116832;27;22831;-71
2024/01/29 04:07:54;;;;;;;5.97;5.03;;;2.90;99.90;;;;;;5099466;27;20035;-72
2024/01/29 04:10:20;;;;;;;7.78;5.38;;;2.90;99.90;;;;;;5097136;27;20047;-71
2024/01/29 04:12:46;;;;;;;7.95;5.60;;;2.80;99.90;;;;;;5115412;27;20084;-72
2024/01/29 04:15:13;;;;;;;9.18;6.15;;;2.80;99.90;;;;;;5098925;27;20058;-72
2024/01/29 04:17:38;;;;;;;8.20;5.30;;;2.70;99.90;;;;;;5116867;27;20046;-72
2024/01/29 04:20:07;;;;;;;6.80;5.03;;;2.70;99.90;;;;;;5119208;27;21423;-71
2024/01/29 04:22:33;;;;;;;6.40;5.45;;;2.70;99.90;;;;;;5115005;27;20043;-72
2024/01/29 04:25:00;;;;;;;7.05;5.30;;;2.70;99.90;;;;;;5097644;27;20031;-72
2024/01/29 04:27:26;;;;;;;9.20;5.57;;;2.70;99.90;;;;;;5118089;27;20031;-72
2024/01/29 04:29:51;;;;;;;7.93;5.30;;;2.80;99.90;;;;;;5097437;27;20043;-72
2024/01/29 04:32:17;;;;;;;8.23;5.53;;;2.90;99.90;;;;;;5101973;27;20043;-72
2024/01/29 04:34:43;;;;;;;7.63;5.32;;;2.90;99.90;;;;;;5097981;27;20043;-72
2024/01/29 04:37:09;;;;;;;7.57;5.38;;;2.90;99.90;;;;;;5117901;27;20047;-72
2024/01/29 04:39:39;;;;;;;10.73;5.15;;;2.90;99.90;;;;;;5114397;27;20043;-72
2024/01/29 04:42:06;;;;;;;8.95;5.70;;;3.00;99.90;;;;;;5099271;27;20095;-72
2024/01/29 04:44:32;;;;;;;7.70;5.25;;;3.00;99.90;;;;;;5098322;27;20103;-72
2024/01/29 04:47:00;;;;;;;7.80;5.13;;;3.00;99.90;;;;;;5099502;27;20367;-72
2024/01/29 04:49:26;;;;;;;8.80;5.20;;;3.10;99.90;;;;;;5099643;27;20043;-73
2024/01/29 04:51:52;;;;;;;8.15;5.60;;;3.20;99.90;;;;;;5116183;27;20788;-72
2024/01/29 04:54:18;;;;;;;7.22;5.50;;;3.10;99.90;;;;;;5098067;27;20070;-72
2024/01/29 04:56:43;;;;;;;7.78;5.65;;;3.10;99.90;;;;;;5101160;27;20044;-72
2024/01/29 04:59:09;;;;;;;8.80;5.78;;;3.10;99.90;;;;;;5098453;27;20075;-72
2024/01/29 05:01:35;;;;;;;8.02;5.60;;;3.10;99.90;;;;;;5117688;27;20039;-72
2024/01/29 05:04:00;;;;;;;7.85;5.63;;;3.10;99.90;;;;;;5114835;27;20043;-72
2024/01/29 05:06:26;;;;;;;9.15;5.63;;;3.10;99.90;;;;;;5119080;27;20569;-72
2024/01/29 05:08:52;;;;;;;9.18;6.07;;;3.10;99.90;;;;;;5114615;27;20047;-72
2024/01/29 05:11:17;;;;;;;7.78;5.88;;;3.00;99.90;;;;;;5115364;27;20092;-72
2024/01/29 05:13:43;;;;;;;9.88;5.82;;;3.00;99.90;;;;;;5086478;27;20043;-72
2024/01/29 05:16:13;;;;;;;7.43;5.60;;;3.00;99.90;;;;;;5115162;27;20046;-72
2024/01/29 05:18:38;;;;;;;8.60;6.10;;;3.00;99.90;;;;;;5118021;27;20120;-72
2024/01/29 05:21:05;;;;;;;7.28;5.72;;;3.00;99.90;;;;;;5098548;27;20501;-72
2024/01/29 05:23:30;;;;;;;8.95;5.75;;;3.00;99.90;;;;;;5114213;27;20043;-71
2024/01/29 05:25:56;;;;;;;8.70;6.35;;;3.00;99.90;;;;;;5099393;27;20073;-71
2024/01/29 05:28:22;;;;;;;9.95;6.13;;;3.00;99.90;;;;;;5117527;27;20147;-72
2024/01/29 05:30:50;;;;;;;7.78;5.75;;;3.10;99.90;;;;;;5116986;27;20038;-72
2024/01/29 05:33:16;;;;;;;9.10;6.40;;;3.00;99.90;;;;;;5117075;27;20043;-72
2024/01/29 05:35:42;;;;;;;9.95;6.20;;;3.00;99.90;;;;;;5098136;27;20043;-72
2024/01/29 05:38:07;;;;;;;9.45;6.57;;;3.00;99.90;;;;;;5096876;27;20080;-72
2024/01/29 05:40:33;;;;;;;7.57;6.20;;;2.90;99.90;;;;;;5099820;27;20046;-72
2024/01/29 05:42:58;;;;;;;7.30;5.93;;;2.90;99.90;;;;;;5099601;27;20188;-72
2024/01/29 05:45:24;;;;;;;9.15;6.10;;;2.90;99.90;;;;;;5097814;27;20036;-72
2024/01/29 05:47:50;;;;;;;10.07;6.50;;;3.00;99.90;;;;;;5097121;27;20460;-72
2024/01/29 05:50:16;;;;;;;8.25;6.13;;;3.00;99.90;;;;;;5116787;27;20194;-72
2024/01/29 05:52:42;;;;;;;9.63;6.30;;;3.10;99.90;;;;;;5113384;27;20553;-72
2024/01/29 05:55:08;;;;;;;8.38;5.78;;;3.30;99.90;;;;;;5115410;27;20118;-71
2024/01/29 05:57:34;;;;;;;7.65;6.05;;;3.40;99.90;;;;;;5096910;27;20039;-71
2024/01/29 05:59:59;;;;;;;7.85;5.97;;;3.40;99.90;;;;;;5115857;27;20085;-71
2024/01/29 06:02:25;;;;;;;7.60;5.70;;;3.50;99.90;;;;;;5112953;27;20087;-71
2024/01/29 06:04:50;;;;;;;7.95;5.90;;;3.50;99.90;;;;;;5098155;27;20062;-72
2024/01/29 06:07:16;;;;;;;8.85;6.15;;;3.50;99.90;;;;;;5120629;27;20123;-71
2024/01/29 06:09:42;;;;;;;9.27;6.07;;;3.60;99.90;;;;;;5102948;28;20055;-72
2024/01/29 06:12:07;;;;;;;7.03;5.43;;;3.60;99.90;;;;;;5102162;28;20039;-71
2024/01/29 06:14:33;;;;;;;10.57;6.28;;;3.60;99.90;;;;;;5098742;27;20081;-72
2024/01/29 06:16:59;;;;;;;8.35;5.60;;;3.70;99.90;;;;;;5112549;27;20449;-72
2024/01/29 06:19:25;;;;;;;10.90;6.20;;;3.60;99.90;;;;;;5093119;27;20412;-72
2024/01/29 06:21:51;;;;;;;10.13;5.82;;;3.60;99.90;;;;;;5095278;27;20031;-72
2024/01/29 06:24:17;;;;;;;9.25;5.70;;;3.70;99.90;;;;;;5111966;27;20127;-72
2024/01/29 06:26:43;;;;;;;9.25;6.70;;;3.60;99.90;;;;;;5096696;27;20043;-72
2024/01/29 06:29:09;;;;;;;9.07;6.75;;;3.60;99.90;;;;;;5111240;27;20077;-72
2024/01/29 06:31:39;;;;;;;8.80;6.13;;;3.50;99.90;;;;;;5095391;28;20187;-72
2024/01/29 06:34:05;;;;;;;8.80;6.28;;;3.50;99.90;;;;;;5095454;28;20459;-72
2024/01/29 06:36:31;;;;;;;9.18;6.18;;;3.60;99.90;;;;;;5117230;27;20043;-71
2024/01/29 06:38:58;;;;;;;8.93;6.45;;;3.50;99.90;;;;;;5098980;28;20674;-72
2024/01/29 06:41:24;;;;;;;10.10;6.40;;;3.60;99.90;;;;;;5096636;27;20047;-71
2024/01/29 06:43:51;;;;;;;10.57;6.25;;;3.50;99.90;;;;;;5116601;27;20039;-72
2024/01/29 06:46:17;;;;;;;10.35;5.95;;;3.50;99.90;;;;;;5114706;27;20086;-72
2024/01/29 06:48:43;;;;;;;11.15;6.60;;;3.50;99.90;;;;;;5100914;27;20127;-73
2024/01/29 06:51:09;;;;;;;10.60;6.43;;;3.60;99.90;;;;;;5102309;27;20100;-71
2024/01/29 06:53:36;;;;;;;8.68;6.50;;;3.60;99.90;;;;;;5118361;27;20085;-72
2024/01/29 06:56:05;;;;;;;9.75;6.63;;;3.60;99.90;;;;;;5123531;27;20082;-72
2024/01/29 06:58:31;;;;;;;8.63;5.97;;;3.70;99.90;;;;;;5100998;27;20129;-71
2024/01/29 07:00:59;;;;;;;10.60;6.38;;;3.70;99.90;;;;;;5102846;27;20137;-72
2024/01/29 07:03:25;;;;;;;10.77;6.53;;;3.80;99.90;;;;;;5103462;27;20497;-72
2024/01/29 07:05:51;;;;;;;9.68;7.03;;;3.80;99.90;;;;;;5118526;27;20043;-72
2024/01/29 07:08:17;;;;;;;10.43;6.57;;;3.90;99.90;;;;;;5119714;27;20035;-71
2024/01/29 07:10:43;;;;;;;9.40;6.55;;;3.90;99.90;;;;;;5119674;27;20043;-71
2024/01/29 07:13:09;;;;;;;9.75;6.53;;;3.90;99.90;;;;;;5101177;27;20366;-72
2024/01/29 07:15:34;;;;;;;8.10;6.47;;;3.90;99.90;;;;;;5097976;27;20054;-72
2024/01/29 07:18:00;;;;;;;11.48;6.97;;;3.90;99.90;;;;;;5099058;27;20039;-72
2024/01/29 07:20:29;;;;;;;9.38;6.30;;;3.90;99.90;;;;;;5118042;27;20127;-72
2024/01/29 07:22:55;;;;;;;8.80;6.72;;;3.90;99.90;;;;;;5095584;27;20038;-72
2024/01/29 07:25:21;;;;;;;11.23;7.00;;;4.00;99.90;;;;;;5118335;27;20050;-72
2024/01/29 07:27:47;;;;;;;9.93;7.10;;;4.00;99.90;;;;;;5118820;27;20042;-71
2024/01/29 07:30:13;;;;;;;8.98;6.18;;;4.00;99.90;;;;;;5118529;27;20080;-71
2024/01/29 07:32:39;;;;;;;9.48;6.63;;;4.10;99.90;;;;;;5101084;27;20035;-71
2024/01/29 07:35:06;;;;;;;9.77;6.68;;;4.10;99.90;;;;;;5101194;27;21007;-71
2024/01/29 07:37:31;;;;;;;8.70;6.50;;;4.10;99.90;;;;;;5122081;27;20527;-71
2024/01/29 07:39:58;;;;;;;9.95;6.82;;;4.10;99.90;;;;;;5101190;27;20043;-71
2024/01/29 07:42:23;;;;;;;9.27;7.00;;;4.10;99.90;;;;;;5101083;27;20047;-72
2024/01/29 07:44:51;;;;;;;9.40;6.82;;;4.10;99.90;;;;;;5098287;27;20047;-72
2024/01/29 07:47:17;;;;;;;8.90;7.05;;;4.10;99.90;;;;;;5117721;27;20043;-71
2024/01/29 07:49:42;;;;;;;9.90;6.60;;;4.10;99.90;;;;;;5105348;27;20043;-71
2024/01/29 07:52:09;;;;;;;10.68;7.15;;;4.10;99.90;;;;;;5100782;27;20050;-72
2024/01/29 07:54:35;;;;;;;8.98;6.88;;;4.10;99.90;;;;;;5103308;27;20092;-70
2024/01/29 07:57:01;;;;;;;10.73;6.88;;;4.10;99.90;;;;;;5101343;27;20517;-70
2024/01/29 07:59:27;;;;;;;8.38;7.18;;;4.10;99.90;;;;;;5101334;27;20143;-71
2024/01/29 08:01:53;;;;;;;9.43;7.25;;;4.20;99.90;;;;;;5101280;27;20035;-70
2024/01/29 08:04:18;;;;;;;8.55;6.80;;;4.20;99.90;;;;;;5120427;27;20047;-73
2024/01/29 08:06:44;;;;;;;10.20;7.13;;;4.20;99.90;;;;;;5101702;27;20129;-72
2024/01/29 08:09:09;;;;;;;9.57;6.90;;;4.20;99.90;;;;;;5118860;27;20139;-73
2024/01/29 08:11:35;;;;;;;9.05;7.00;;;4.30;99.90;;;;;;5100411;27;20397;-73
2024/01/29 08:14:01;;;;;;;9.38;7.07;;;4.30;99.90;;;;;;5098176;27;20058;-72
2024/01/29 08:16:26;;;;;;;9.13;7.15;;;4.40;99.90;;;;;;5103344;27;20040;-73
2024/01/29 08:18:52;;;;;;;11.13;7.10;;;4.40;99.90;;;;;;5122547;27;20066;-72
2024/01/29 08:21:18;;;;;;;7.90;6.90;;;4.40;99.90;;;;;;5097807;27;20146;-71
2024/01/29 08:23:44;;;;;;;8.82;7.28;;;4.40;99.90;;;;;;5099545;27;20765;-71
2024/01/29 08:26:10;;;;;;;12.00;7.38;;;4.50;99.90;;;;;;5081643;27;20058;-71
2024/01/29 08:28:35;;;;;;;13.52;6.82;;;4.50;99.90;;;;;;5097572;27;20066;-72
2024/01/29 08:31:02;;;;;;;9.93;7.30;;;4.50;99.90;;;;;;5119634;27;20035;-72
2024/01/29 08:33:28;;;;;;;10.68;7.22;;;4.60;99.90;;;;;;5098052;27;20486;-72
2024/01/29 08:35:55;;;;;;;11.13;7.18;;;4.60;99.90;;;;;;5095585;27;20900;-71
2024/01/29 08:38:20;;;;;;;9.73;7.57;;;4.70;99.90;;;;;;5113238;27;20077;-72
2024/01/29 08:40:46;;;;;;;11.02;8.07;;;4.80;99.90;;;;;;5113174;27;20067;-72
2024/01/29 08:43:12;;;;;;;10.20;7.20;;;4.90;99.90;;;;;;5100784;27;20140;-71
2024/01/29 08:45:37;;;;;;;8.98;6.97;;;5.00;99.90;;;;;;5114807;27;20039;-70
2024/01/29 08:48:03;;;;;;;9.07;6.97;;;5.00;99.90;;;;;;5117594;27;20035;-70
2024/01/29 08:50:33;;;;;;;10.70;6.93;;;5.10;99.90;;;;;;5096571;27;20039;-70
2024/01/29 08:52:58;;;;;;;10.75;7.45;;;5.10;99.90;;;;;;5116789;27;20059;-71
2024/01/29 08:55:24;;;;;;;10.40;7.05;;;5.20;99.90;;;;;;5113910;27;20188;-71
2024/01/29 08:57:50;;;;;;;9.73;7.50;;;5.20;99.90;;;;;;5097145;27;20091;-71
2024/01/29 09:00:16;;;;;;;8.73;6.82;;;5.20;99.90;;;;;;5116464;27;20039;-71
2024/01/29 09:02:42;;;;;;;10.65;7.50;;;5.20;99.90;;;;;;5115620;27;20771;-71
2024/01/29 09:05:11;;;;;;;11.23;7.50;;;5.30;99.90;;;;;;5099101;27;20069;-72
2024/01/29 09:07:36;;;;;;;9.95;8.20;;;5.30;99.90;;;;;;5085640;27;20163;-72
2024/01/29 09:10:03;;;;;;;9.18;7.45;;;5.40;99.90;;;;;;5113399;27;20036;-71
2024/01/29 09:12:28;;;;;;;9.55;7.40;;;5.50;99.90;;;;;;5098821;27;20035;-72
2024/01/29 09:14:54;;;;;;;9.65;7.50;;;5.50;99.90;;;;;;5095651;27;20048;-72
2024/01/29 09:17:20;;;;;;;10.98;7.63;;;5.50;99.90;;;;;;5098156;27;20043;-72
2024/01/29 09:19:45;;;;;;;9.35;7.53;;;5.60;99.90;;;;;;5095076;27;21403;-72
2024/01/29 09:22:14;;;;;;;10.80;7.22;;;5.70;99.90;;;;;;5117585;27;20050;-71
2024/01/29 09:24:40;;;;;;;11.75;7.57;;;5.70;99.90;;;;;;5115787;27;20072;-71
2024/01/29 09:27:05;;;;;;;9.63;7.22;;;5.80;99.90;;;;;;5096505;27;20047;-71
2024/01/29 09:29:31;;;;;;;11.52;7.95;;;5.80;99.90;;;;;;5115891;27;20096;-72
2024/01/29 09:31:57;;;;;;;9.63;7.53;;;5.80;99.90;;;;;;5114394;27;20039;-71
2024/01/29 09:34:24;;;;;;;12.30;8.15;;;5.90;99.90;;;;;;5097062;27;20550;-72
2024/01/29 09:36:50;;;;;;;11.35;7.82;;;6.00;99.90;;;;;;5115039;27;20500;-72
2024/01/29 09:39:17;;;;;;;11.55;8.10;;;6.00;99.90;;;;;;5117203;27;20050;-71
2024/01/29 09:41:43;;;;;;;10.90;7.95;;;6.10;99.90;;;;;;5117840;27;20134;-72
2024/01/29 09:44:12;;;;;;;15.13;7.95;;;6.20;99.90;;;;;;5098371;27;20594;-71
2024/01/29 09:46:40;;;;;;;10.50;7.38;;;6.20;99.90;;;;;;5113989;27;20524;-71
2024/01/29 09:49:09;;;;;;;8.65;7.75;;;6.30;99.90;;;;;;5095118;27;20043;-72
2024/01/29 09:51:35;;;;;;;10.27;7.88;;;6.40;99.90;;;;;;5094669;27;20059;-71
2024/01/29 09:54:02;;;;;;;12.93;8.38;;;6.50;99.90;;;;;;5099244;27;20039;-72
2024/01/29 09:56:31;;;;;;;16.42;8.38;;;6.50;99.90;;;;;;5097089;27;20046;-71
2024/01/29 09:58:56;;;;;;;12.68;8.68;;;6.60;99.90;;;;;;5098101;28;20446;-71
2024/01/29 10:01:23;;;;;;;11.43;8.43;;;6.70;99.90;;;;;;5096014;28;20047;-71
2024/01/29 10:03:49;;;;;;;10.27;8.15;;;6.80;99.90;;;;;;5094966;28;20122;-71
2024/01/29 10:06:15;;;;;;;12.05;8.15;;;6.80;99.90;;;;;;5094239;28;20444;-72
2024/01/29 10:08:42;;;;;;;12.68;8.82;;;6.90;99.90;;;;;;5110465;27;20034;-72
2024/01/29 10:11:08;;;;;;;11.27;8.70;;;6.90;99.90;;;;;;5115433;27;20039;-72
2024/01/29 10:13:34;;;;;;;12.40;9.52;;;7.00;99.90;;;;;;5095614;27;20769;-72
2024/01/29 10:16:00;;;;;;;10.45;8.25;;;7.00;99.90;;;;;;5097366;28;21850;-72
2024/01/29 10:18:26;;;;;;;12.88;9.23;;;7.10;99.90;;;;;;5110819;27;20095;-71
2024/01/29 10:21:05;;;;;;;13.88;8.85;;;7.10;99.90;;;;;;5111763;27;20266;-72
2024/01/29 10:23:31;;;;;;;11.23;8.80;;;7.20;99.90;;;;;;5098196;27;20032;-71
2024/01/29 10:26:00;;;;;;;12.45;8.57;;;7.20;99.90;;;;;;5100891;27;20677;-72
2024/01/29 10:28:29;;;;;;;12.18;9.02;;;7.30;99.90;;;;;;5101211;27;20043;-71
2024/01/29 10:30:55;;;;;;;14.93;9.07;;;7.30;99.90;;;;;;5099863;27;20062;-72
2024/01/29 10:33:21;;;;;;;12.98;9.63;;;7.40;99.90;;;;;;5098429;27;20046;-71
2024/01/29 10:35:49;;;;;;;13.35;9.68;;;7.40;99.90;;;;;;5098191;27;20055;-72
2024/01/29 10:38:18;;;;;;;11.80;9.40;;;7.40;99.90;;;;;;5114568;27;20558;-72
2024/01/29 10:40:44;;;;;;;13.50;9.43;;;7.50;99.90;;;;;;5116097;27;20070;-72
2024/01/29 10:43:19;;;;;;;14.73;9.55;;;7.50;99.90;;;;;;5117870;27;20091;-72
2024/01/29 10:45:51;;;;;;;13.18;9.60;;;7.60;99.90;;;;;;5117062;27;20569;-72
2024/01/29 10:48:23;;;;;;;10.73;9.02;;;7.70;99.90;;;;;;5098782;27;20067;-72
2024/01/29 10:50:50;;;;;;;13.57;9.90;;;7.80;99.90;;;;;;5119751;27;20134;-71
2024/01/29 10:53:17;;;;;;;11.30;9.32;;;7.80;99.90;;;;;;5097048;27;20058;-72
2024/01/29 10:55:50;;;;;;;11.82;9.73;;;7.80;99.90;;;;;;5096396;27;20664;-72
2024/01/29 10:58:17;;;;;;;11.88;9.90;;;7.90;99.90;;;;;;5118190;27;20104;-72
2024/01/29 11:00:44;;;;;;;14.10;9.68;;;7.90;99.90;;;;;;5097316;27;20051;-72
2024/01/29 11:03:14;;;;;;;15.77;10.10;;;8.00;99.90;;;;;;5097736;27;20134;-72
2024/01/29 11:05:50;;;;;;;17.55;10.63;;;8.10;99.90;;;;;;5118682;27;20043;-72
2024/01/29 11:08:21;;;;;;;15.80;9.98;;;8.20;99.90;;;;;;5116966;27;20039;-72
2024/01/29 11:10:46;;;;;;;17.00;10.07;;;8.30;99.90;;;;;;5098139;27;20619;-72
2024/01/29 11:13:14;;;;;;;13.13;10.07;;;8.40;99.90;;;;;;5099376;27;20043;-72
2024/01/29 11:15:41;;;;;;;12.45;9.85;;;8.50;99.90;;;;;;5115671;27;20049;-72
2024/01/29 11:18:08;;;;;;;13.20;10.27;;;8.60;99.90;;;;;;5116639;27;20409;-72
2024/01/29 11:20:33;;;;;;;14.48;11.02;;;8.70;99.90;;;;;;5096684;27;20066;-72
2024/01/29 11:23:00;;;;;;;14.38;9.52;;;8.80;99.90;;;;;;5100334;27;20047;-72
2024/01/29 11:25:29;;;;;;;14.82;11.38;;;8.90;99.90;;;;;;5097891;27;20039;-72
2024/01/29 11:27:58;;;;;;;12.20;9.98;;;8.90;99.90;;;;;;5115846;27;20027;-72
2024/01/29 11:30:26;;;;;;;15.52;9.88;;;9.10;99.90;;;;;;5118565;27;20207;-72
2024/01/29 11:32:54;;;;;;;13.38;10.35;;;9.10;99.90;;;;;;5114872;27;20125;-72
2024/01/29 11:35:22;;;;;;;15.38;10.27;;;9.20;99.90;;;;;;5099440;27;20047;-72
2024/01/29 11:37:51;;;;;;;12.15;9.93;;;9.30;99.90;;;;;;5117905;27;20058;-72
2024/01/29 11:40:43;;;;;;;12.27;10.10;;;9.40;99.90;;;;;;5098352;27;20545;-71
2024/01/29 11:43:14;;;;;;;22.48;11.50;;;9.50;99.90;;;;;;5098661;27;20051;-71
2024/01/29 11:45:40;;;;;;;13.20;10.15;;;9.50;99.90;;;;;;5099013;27;20069;-71
2024/01/29 11:48:10;;;;;;;12.30;10.13;;;9.50;99.90;;;;;;5117700;27;20047;-72
2024/01/29 11:50:38;;;;;;;13.95;10.73;;;9.50;99.90;;;;;;5097216;27;20130;-72
2024/01/29 11:53:04;;;;;;;14.50;10.82;;;9.50;99.90;;;;;;5099883;27;20055;-71
2024/01/29 11:55:30;;;;;;;19.80;11.27;;;9.50;99.90;;;;;;5096529;27;20094;-72
2024/01/29 11:57:56;;;;;;;16.05;10.95;;;9.50;99.90;;;;;;5099563;27;20449;-72
2024/01/29 12:00:23;;;;;;;13.02;10.57;;;9.50;99.90;;;;;;5098146;27;20154;-72
2024/01/29 12:02:50;;;;;;;16.20;11.32;;;9.40;99.90;;;;;;5114438;27;20050;-70
2024/01/29 12:05:16;;;;;;;12.93;10.27;;;9.40;99.90;;;;;;5117322;27;20047;-70
2024/01/29 12:07:44;;;;;;;15.20;11.45;;;9.30;99.90;;;;;;5099700;27;20163;-70
2024/01/29 12:10:10;;;;;;;14.82;11.15;;;9.30;99.90;;;;;;5099889;27;20034;-69
2024/01/29 12:12:36;;;;;;;16.63;11.00;;;9.30;99.90;;;;;;5115437;27;20047;-71
2024/01/29 12:15:03;;;;;;;14.30;10.98;;;9.30;99.90;;;;;;5097559;27;20039;-70
2024/01/29 12:17:29;;;;;;;15.30;10.43;;;9.30;99.90;;;;;;5097174;27;20051;-70
2024/01/29 12:19:55;;;;;;;12.68;11.00;;;9.30;99.90;;;;;;5095547;27;20055;-70
2024/01/29 12:22:22;;;;;;;14.38;11.05;;;9.20;99.90;;;;;;5117080;27;20041;-70
2024/01/29 12:24:49;;;;;;;15.18;11.27;;;9.20;99.90;;;;;;5114896;27;20047;-70
2024/01/29 12:27:14;;;;;;;15.98;12.35;;;9.20;99.90;;;;;;5098724;27;20043;-70
2024/01/29 12:29:40;;;;;;;13.70;10.57;;;9.30;99.90;;;;;;5118829;27;22729;-70
2024/01/29 12:32:13;;;;;;;16.40;11.70;;;9.30;99.90;;;;;;5117630;27;20429;-70
2024/01/29 12:34:45;;;;;;;18.13;11.95;;;9.20;99.90;;;;;;5099474;27;20049;-69
2024/01/29 12:37:21;;;;;;;16.85;12.20;;;9.30;99.90;;;;;;5116266;27;20043;-71
2024/01/29 12:39:54;;;;;;;15.70;11.95;;;9.30;99.90;;;;;;5096013;27;20051;-70
2024/01/29 12:42:21;;;;;;;17.85;12.30;;;9.30;99.90;;;;;;5100199;27;20130;-69
2024/01/29 12:44:48;;;;;;;19.52;12.75;;;9.30;99.90;;;;;;5097675;27;20123;-69
2024/01/29 12:47:20;;;;;;;15.57;11.32;;;9.20;99.90;;;;;;5097315;27;20043;-70
2024/01/29 12:49:49;;;;;;;18.05;12.07;;;9.20;99.90;;;;;;5114783;27;20067;-69